sensor_id;sensor_type;location;lat;lon;timestamp;P1;durP1;ratioP1;P2;durP2;ratioP2
71176;SDS011;58877;51.992;4.504;2022-07-29T00:01:06;77.76;;;77.76;;
71176;SDS011;58877;51.992;4.504;2022-07-29T00:03:31;140.37;;;140.37;;
71176;SDS011;58877;51.992;4.504;2022-07-29T00:05:57;161.12;;;161.12;;
71176;SDS011;58877;51.992;4.504;2022-07-29T00:08:25;145.12;;;145.12;;
71176;SDS011;58877;51.992;4.504;2022-07-29T00:10:51;132.85;;;132.84;;
71176;SDS011;58877;51.992;4.504;2022-07-29T00:13:16;172.59;;;172.59;;
71176;SDS011;58877;51.992;4.504;2022-07-29T00:15:42;187.08;;;187.08;;
71176;SDS011;58877;51.992;4.504;2022-07-29T00:18:08;168.11;;;168.11;;
71176;SDS011;58877;51.992;4.504;2022-07-29T00:20:33;129.32;;;129.32;;
71176;SDS011;58877;51.992;4.504;2022-07-29T00:22:59;224.18;;;224.18;;
71176;SDS011;58877;51.992;4.504;2022-07-29T00:25:24;206.92;;;206.92;;
71176;SDS011;58877;51.992;4.504;2022-07-29T00:27:52;173.55;;;173.55;;
71176;SDS011;58877;51.992;4.504;2022-07-29T00:30:21;248.17;;;248.17;;
71176;SDS011;58877;51.992;4.504;2022-07-29T00:32:47;342.00;;;342.00;;
71176;SDS011;58877;51.992;4.504;2022-07-29T00:35:13;227.27;;;227.27;;
71176;SDS011;58877;51.992;4.504;2022-07-29T00:37:57;192.82;;;192.82;;
71176;SDS011;58877;51.992;4.504;2022-07-29T00:40:22;366.42;;;366.42;;
71176;SDS011;58877;51.992;4.504;2022-07-29T00:42:49;658.91;;;658.91;;
71176;SDS011;58877;51.992;4.504;2022-07-29T00:45:16;960.48;;;960.48;;
71176;SDS011;58877;51.992;4.504;2022-07-29T00:47:43;1103.22;;;1103.22;;
71176;SDS011;58877;51.992;4.504;2022-07-29T00:50:10;1039.16;;;1039.16;;
71176;SDS011;58877;51.992;4.504;2022-07-29T00:52:39;1213.25;;;1213.25;;
71176;SDS011;58877;51.992;4.504;2022-07-29T00:55:07;1564.88;;;1564.87;;
71176;SDS011;58877;51.992;4.504;2022-07-29T00:57:35;1603.24;;;1603.24;;
71176;SDS011;58877;51.992;4.504;2022-07-29T01:00:05;1365.08;;;1365.08;;
71176;SDS011;58877;51.992;4.504;2022-07-29T01:02:33;1510.39;;;1510.39;;
71176;SDS011;58877;51.992;4.504;2022-07-29T01:04:59;1888.81;;;1888.81;;
71176;SDS011;58877;51.992;4.504;2022-07-29T01:07:27;1649.37;;;1649.37;;
71176;SDS011;58877;51.992;4.504;2022-07-29T01:09:55;1529.75;;;1529.75;;
71176;SDS011;58877;51.992;4.504;2022-07-29T01:12:24;1856.50;;;1856.49;;
71176;SDS011;58877;51.992;4.504;2022-07-29T01:14:52;1882.45;;;1882.45;;
71176;SDS011;58877;51.992;4.504;2022-07-29T01:18:04;1823.76;;;1823.76;;
71176;SDS011;58877;51.992;4.504;2022-07-29T01:20:18;1776.69;;;1776.69;;
71176;SDS011;58877;51.992;4.504;2022-07-29T01:31:27;1716.30;;;1716.30;;
71176;SDS011;58877;51.992;4.504;2022-07-29T01:33:57;1812.68;;;1812.68;;
71176;SDS011;58877;51.992;4.504;2022-07-29T01:36:40;2261.98;;;2261.98;;
71176;SDS011;58877;51.992;4.504;2022-07-29T01:39:18;2566.88;;;2566.88;;
71176;SDS011;58877;51.992;4.504;2022-07-29T01:41:54;3005.21;;;3005.21;;
71176;SDS011;58877;51.992;4.504;2022-07-29T01:44:30;3214.32;;;3214.32;;
71176;SDS011;58877;51.992;4.504;2022-07-29T01:47:01;3439.96;;;3439.96;;
71176;SDS011;58877;51.992;4.504;2022-07-29T01:49:36;3471.53;;;3471.22;;
71176;SDS011;58877;51.992;4.504;2022-07-29T01:52:13;3483.72;;;3483.72;;
71176;SDS011;58877;51.992;4.504;2022-07-29T01:54:47;3500.88;;;3498.19;;
71176;SDS011;58877;51.992;4.504;2022-07-29T01:57:24;3551.43;;;3548.01;;
71176;SDS011;58877;51.992;4.504;2022-07-29T01:59:54;3472.68;;;3472.68;;
71176;SDS011;58877;51.992;4.504;2022-07-29T02:02:26;3196.22;;;3196.21;;
71176;SDS011;58877;51.992;4.504;2022-07-29T02:04:54;2770.32;;;2770.31;;
71176;SDS011;58877;51.992;4.504;2022-07-29T02:07:24;2464.70;;;2464.70;;
71176;SDS011;58877;51.992;4.504;2022-07-29T02:09:54;2242.97;;;2242.97;;
71176;SDS011;58877;51.992;4.504;2022-07-29T02:12:22;1613.11;;;1613.11;;
71176;SDS011;58877;51.992;4.504;2022-07-29T02:14:52;1438.38;;;1438.38;;
71176;SDS011;58877;51.992;4.504;2022-07-29T02:17:39;1426.95;;;1426.95;;
71176;SDS011;58877;51.992;4.504;2022-07-29T02:20:12;1123.11;;;1123.11;;
71176;SDS011;58877;51.992;4.504;2022-07-29T02:22:39;1049.12;;;1049.12;;
71176;SDS011;58877;51.992;4.504;2022-07-29T02:25:07;1060.82;;;1060.82;;
71176;SDS011;58877;51.992;4.504;2022-07-29T02:27:34;937.91;;;937.91;;
71176;SDS011;58877;51.992;4.504;2022-07-29T02:30:02;885.81;;;885.81;;
71176;SDS011;58877;51.992;4.504;2022-07-29T02:32:31;1038.85;;;1038.85;;
71176;SDS011;58877;51.992;4.504;2022-07-29T02:35:00;1251.86;;;1251.86;;
71176;SDS011;58877;51.992;4.504;2022-07-29T02:37:27;1238.86;;;1238.86;;
71176;SDS011;58877;51.992;4.504;2022-07-29T02:39:54;1156.74;;;1156.74;;
71176;SDS011;58877;51.992;4.504;2022-07-29T02:42:21;1118.36;;;1118.36;;
71176;SDS011;58877;51.992;4.504;2022-07-29T02:44:49;1116.40;;;1116.39;;
71176;SDS011;58877;51.992;4.504;2022-07-29T02:47:18;994.44;;;994.44;;
71176;SDS011;58877;51.992;4.504;2022-07-29T02:50:11;1096.10;;;1096.10;;
71176;SDS011;58877;51.992;4.504;2022-07-29T02:52:58;1063.61;;;1063.61;;
71176;SDS011;58877;51.992;4.504;2022-07-29T02:55:32;1195.30;;;1195.30;;
71176;SDS011;58877;51.992;4.504;2022-07-29T02:58:03;1761.35;;;1761.35;;
71176;SDS011;58877;51.992;4.504;2022-07-29T03:00:47;2197.12;;;2197.12;;
71176;SDS011;58877;51.992;4.504;2022-07-29T03:03:17;2323.16;;;2323.16;;
71176;SDS011;58877;51.992;4.504;2022-07-29T03:05:44;2362.74;;;2362.74;;
71176;SDS011;58877;51.992;4.504;2022-07-29T03:08:11;2062.59;;;2062.59;;
71176;SDS011;58877;51.992;4.504;2022-07-29T03:10:43;2421.04;;;2421.04;;
71176;SDS011;58877;51.992;4.504;2022-07-29T03:13:10;2860.88;;;2860.88;;
71176;SDS011;58877;51.992;4.504;2022-07-29T03:15:38;3246.90;;;3246.89;;
71176;SDS011;58877;51.992;4.504;2022-07-29T03:18:04;3771.53;;;3754.90;;
71176;SDS011;58877;51.992;4.504;2022-07-29T03:20:31;3908.50;;;3866.85;;
71176;SDS011;58877;51.992;4.504;2022-07-29T03:22:57;3634.81;;;3629.62;;
71176;SDS011;58877;51.992;4.504;2022-07-29T03:25:22;3194.37;;;3194.37;;
71176;SDS011;58877;51.992;4.504;2022-07-29T03:27:48;2939.10;;;2939.09;;
71176;SDS011;58877;51.992;4.504;2022-07-29T03:30:14;2946.38;;;2946.38;;
71176;SDS011;58877;51.992;4.504;2022-07-29T03:32:41;3272.96;;;3272.96;;
71176;SDS011;58877;51.992;4.504;2022-07-29T03:35:09;3299.07;;;3299.07;;
71176;SDS011;58877;51.992;4.504;2022-07-29T03:37:35;3226.73;;;3226.72;;
71176;SDS011;58877;51.992;4.504;2022-07-29T03:40:02;2969.78;;;2969.78;;
71176;SDS011;58877;51.992;4.504;2022-07-29T03:42:31;2593.60;;;2593.60;;
71176;SDS011;58877;51.992;4.504;2022-07-29T03:45:05;2389.14;;;2389.13;;
71176;SDS011;58877;51.992;4.504;2022-07-29T03:47:34;2159.33;;;2159.32;;
71176;SDS011;58877;51.992;4.504;2022-07-29T03:50:07;2099.85;;;2099.85;;
71176;SDS011;58877;51.992;4.504;2022-07-29T03:52:35;2318.37;;;2318.37;;
71176;SDS011;58877;51.992;4.504;2022-07-29T03:55:02;2541.78;;;2541.77;;
71176;SDS011;58877;51.992;4.504;2022-07-29T03:57:29;2240.92;;;2240.92;;
71176;SDS011;58877;51.992;4.504;2022-07-29T03:59:56;2263.33;;;2263.32;;
71176;SDS011;58877;51.992;4.504;2022-07-29T04:02:22;2717.08;;;2717.08;;
71176;SDS011;58877;51.992;4.504;2022-07-29T04:04:50;3258.68;;;3258.68;;
71176;SDS011;58877;51.992;4.504;2022-07-29T04:07:16;3669.83;;;3656.71;;
71176;SDS011;58877;51.992;4.504;2022-07-29T04:09:42;4070.44;;;3991.61;;
71176;SDS011;58877;51.992;4.504;2022-07-29T04:12:07;4623.39;;;4356.54;;
71176;SDS011;58877;51.992;4.504;2022-07-29T04:14:34;3660.07;;;3631.25;;
71176;SDS011;58877;51.992;4.504;2022-07-29T04:17:00;3606.98;;;3606.06;;
71176;SDS011;58877;51.992;4.504;2022-07-29T04:19:27;3391.50;;;3391.49;;
71176;SDS011;58877;51.992;4.504;2022-07-29T04:21:53;2957.94;;;2957.94;;
71176;SDS011;58877;51.992;4.504;2022-07-29T04:24:18;2901.05;;;2901.05;;
71176;SDS011;58877;51.992;4.504;2022-07-29T04:26:48;2797.51;;;2797.50;;
71176;SDS011;58877;51.992;4.504;2022-07-29T04:29:14;2225.44;;;2225.44;;
71176;SDS011;58877;51.992;4.504;2022-07-29T04:31:40;2165.53;;;2165.53;;
71176;SDS011;58877;51.992;4.504;2022-07-29T04:34:06;1804.34;;;1804.33;;
71176;SDS011;58877;51.992;4.504;2022-07-29T04:36:32;1630.67;;;1630.66;;
71176;SDS011;58877;51.992;4.504;2022-07-29T04:38:58;1450.92;;;1450.91;;
71176;SDS011;58877;51.992;4.504;2022-07-29T04:41:24;1357.25;;;1357.25;;
71176;SDS011;58877;51.992;4.504;2022-07-29T04:43:49;1439.25;;;1439.24;;
71176;SDS011;58877;51.992;4.504;2022-07-29T04:46:15;1658.21;;;1658.20;;
71176;SDS011;58877;51.992;4.504;2022-07-29T04:48:41;1335.37;;;1335.37;;
71176;SDS011;58877;51.992;4.504;2022-07-29T04:51:06;1232.97;;;1232.96;;
71176;SDS011;58877;51.992;4.504;2022-07-29T04:53:32;1073.67;;;1073.67;;
71176;SDS011;58877;51.992;4.504;2022-07-29T04:55:58;925.75;;;925.75;;
71176;SDS011;58877;51.992;4.504;2022-07-29T04:58:24;1119.84;;;1119.84;;
71176;SDS011;58877;51.992;4.504;2022-07-29T05:00:50;1294.05;;;1294.05;;
71176;SDS011;58877;51.992;4.504;2022-07-29T05:03:17;1109.78;;;1109.78;;
71176;SDS011;58877;51.992;4.504;2022-07-29T05:05:42;1325.03;;;1325.03;;
71176;SDS011;58877;51.992;4.504;2022-07-29T05:08:08;1790.60;;;1790.60;;
71176;SDS011;58877;51.992;4.504;2022-07-29T05:10:34;1813.97;;;1813.97;;
71176;SDS011;58877;51.992;4.504;2022-07-29T05:13:04;1877.50;;;1877.50;;
71176;SDS011;58877;51.992;4.504;2022-07-29T05:15:32;1819.07;;;1819.06;;
71176;SDS011;58877;51.992;4.504;2022-07-29T05:17:59;1817.12;;;1817.12;;
71176;SDS011;58877;51.992;4.504;2022-07-29T05:20:25;1848.67;;;1848.66;;
71176;SDS011;58877;51.992;4.504;2022-07-29T05:22:57;2263.14;;;2263.14;;
71176;SDS011;58877;51.992;4.504;2022-07-29T05:25:24;1808.92;;;1808.91;;
71176;SDS011;58877;51.992;4.504;2022-07-29T05:27:53;1220.92;;;1220.92;;
71176;SDS011;58877;51.992;4.504;2022-07-29T05:30:19;755.84;;;755.84;;
71176;SDS011;58877;51.992;4.504;2022-07-29T05:32:45;868.42;;;868.42;;
71176;SDS011;58877;51.992;4.504;2022-07-29T05:35:14;611.41;;;611.41;;
71176;SDS011;58877;51.992;4.504;2022-07-29T05:37:42;606.63;;;606.63;;
71176;SDS011;58877;51.992;4.504;2022-07-29T05:40:08;559.25;;;559.25;;
71176;SDS011;58877;51.992;4.504;2022-07-29T05:42:34;675.46;;;675.46;;
71176;SDS011;58877;51.992;4.504;2022-07-29T05:45:16;971.71;;;971.71;;
71176;SDS011;58877;51.992;4.504;2022-07-29T05:47:49;1132.39;;;1132.39;;
71176;SDS011;58877;51.992;4.504;2022-07-29T05:50:15;944.74;;;944.74;;
71176;SDS011;58877;51.992;4.504;2022-07-29T05:52:40;624.85;;;624.84;;
71176;SDS011;58877;51.992;4.504;2022-07-29T05:55:06;301.64;;;301.64;;
71176;SDS011;58877;51.992;4.504;2022-07-29T05:57:34;41.19;;;41.19;;
71176;SDS011;58877;51.992;4.504;2022-07-29T06:00:00;51.44;;;51.44;;
71176;SDS011;58877;51.992;4.504;2022-07-29T06:02:25;59.60;;;59.60;;
71176;SDS011;58877;51.992;4.504;2022-07-29T06:04:51;105.55;;;105.55;;
71176;SDS011;58877;51.992;4.504;2022-07-29T06:07:16;32.81;;;32.81;;
71176;SDS011;58877;51.992;4.504;2022-07-29T06:09:42;82.63;;;82.63;;
71176;SDS011;58877;51.992;4.504;2022-07-29T06:12:08;69.01;;;69.01;;
71176;SDS011;58877;51.992;4.504;2022-07-29T06:14:34;46.77;;;46.77;;
71176;SDS011;58877;51.992;4.504;2022-07-29T06:17:00;11.06;;;11.06;;
71176;SDS011;58877;51.992;4.504;2022-07-29T06:19:26;29.06;;;29.06;;
71176;SDS011;58877;51.992;4.504;2022-07-29T06:21:51;58.92;;;58.92;;
71176;SDS011;58877;51.992;4.504;2022-07-29T06:24:17;21.53;;;21.53;;
71176;SDS011;58877;51.992;4.504;2022-07-29T06:26:43;4.88;;;4.88;;
71176;SDS011;58877;51.992;4.504;2022-07-29T06:29:09;5.29;;;5.29;;
71176;SDS011;58877;51.992;4.504;2022-07-29T06:31:36;6.13;;;6.13;;
71176;SDS011;58877;51.992;4.504;2022-07-29T06:34:02;8.93;;;8.93;;
71176;SDS011;58877;51.992;4.504;2022-07-29T06:36:28;9.64;;;9.64;;
71176;SDS011;58877;51.992;4.504;2022-07-29T06:38:54;6.42;;;6.42;;
71176;SDS011;58877;51.992;4.504;2022-07-29T06:41:19;3.07;;;3.07;;
71176;SDS011;58877;51.992;4.504;2022-07-29T06:43:45;2.35;;;2.35;;
71176;SDS011;58877;51.992;4.504;2022-07-29T06:46:12;2.32;;;2.32;;
71176;SDS011;58877;51.992;4.504;2022-07-29T06:48:42;2.54;;;2.54;;
71176;SDS011;58877;51.992;4.504;2022-07-29T06:51:09;2.42;;;2.42;;
71176;SDS011;58877;51.992;4.504;2022-07-29T06:53:36;2.95;;;2.95;;
71176;SDS011;58877;51.992;4.504;2022-07-29T06:56:03;2.75;;;2.75;;
71176;SDS011;58877;51.992;4.504;2022-07-29T06:58:31;4.00;;;4.00;;
71176;SDS011;58877;51.992;4.504;2022-07-29T07:00:57;6.04;;;6.04;;
71176;SDS011;58877;51.992;4.504;2022-07-29T07:03:25;3.00;;;3.00;;
71176;SDS011;58877;51.992;4.504;2022-07-29T07:05:52;3.25;;;3.25;;
71176;SDS011;58877;51.992;4.504;2022-07-29T07:08:19;3.00;;;3.00;;
71176;SDS011;58877;51.992;4.504;2022-07-29T07:10:46;3.30;;;3.30;;
71176;SDS011;58877;51.992;4.504;2022-07-29T07:13:11;4.67;;;4.67;;
71176;SDS011;58877;51.992;4.504;2022-07-29T07:15:37;6.86;;;6.86;;
71176;SDS011;58877;51.992;4.504;2022-07-29T07:18:04;3.89;;;3.89;;
71176;SDS011;58877;51.992;4.504;2022-07-29T07:20:31;2.47;;;2.47;;
71176;SDS011;58877;51.992;4.504;2022-07-29T07:22:57;2.18;;;2.18;;
71176;SDS011;58877;51.992;4.504;2022-07-29T07:25:22;2.64;;;2.64;;
71176;SDS011;58877;51.992;4.504;2022-07-29T07:27:48;3.02;;;3.02;;
71176;SDS011;58877;51.992;4.504;2022-07-29T07:30:14;2.65;;;2.65;;
71176;SDS011;58877;51.992;4.504;2022-07-29T07:32:39;2.36;;;2.36;;
71176;SDS011;58877;51.992;4.504;2022-07-29T07:35:05;2.48;;;2.48;;
71176;SDS011;58877;51.992;4.504;2022-07-29T07:37:33;2.50;;;2.50;;
71176;SDS011;58877;51.992;4.504;2022-07-29T07:39:59;2.82;;;2.82;;
71176;SDS011;58877;51.992;4.504;2022-07-29T07:42:25;2.56;;;2.56;;
71176;SDS011;58877;51.992;4.504;2022-07-29T07:44:51;2.93;;;2.93;;
71176;SDS011;58877;51.992;4.504;2022-07-29T07:47:17;3.34;;;3.34;;
71176;SDS011;58877;51.992;4.504;2022-07-29T07:49:45;3.32;;;3.32;;
71176;SDS011;58877;51.992;4.504;2022-07-29T07:52:12;2.63;;;2.63;;
71176;SDS011;58877;51.992;4.504;2022-07-29T07:54:38;2.57;;;2.57;;
71176;SDS011;58877;51.992;4.504;2022-07-29T07:57:03;2.28;;;2.28;;
71176;SDS011;58877;51.992;4.504;2022-07-29T07:59:29;2.94;;;2.94;;
71176;SDS011;58877;51.992;4.504;2022-07-29T08:01:54;2.51;;;2.51;;
71176;SDS011;58877;51.992;4.504;2022-07-29T08:04:20;2.54;;;2.54;;
71176;SDS011;58877;51.992;4.504;2022-07-29T08:06:45;2.40;;;2.40;;
71176;SDS011;58877;51.992;4.504;2022-07-29T08:09:11;2.75;;;2.75;;
71176;SDS011;58877;51.992;4.504;2022-07-29T08:11:36;2.82;;;2.82;;
71176;SDS011;58877;51.992;4.504;2022-07-29T08:14:02;2.42;;;2.42;;
71176;SDS011;58877;51.992;4.504;2022-07-29T08:16:28;3.00;;;3.00;;
71176;SDS011;58877;51.992;4.504;2022-07-29T08:18:54;2.81;;;2.81;;
71176;SDS011;58877;51.992;4.504;2022-07-29T08:21:22;2.94;;;2.94;;
71176;SDS011;58877;51.992;4.504;2022-07-29T08:23:49;3.25;;;3.25;;
71176;SDS011;58877;51.992;4.504;2022-07-29T08:26:17;3.20;;;3.20;;
71176;SDS011;58877;51.992;4.504;2022-07-29T08:28:44;2.82;;;2.82;;
71176;SDS011;58877;51.992;4.504;2022-07-29T08:31:11;3.09;;;3.09;;
71176;SDS011;58877;51.992;4.504;2022-07-29T08:33:38;2.89;;;2.89;;
71176;SDS011;58877;51.992;4.504;2022-07-29T08:36:04;3.23;;;3.23;;
71176;SDS011;58877;51.992;4.504;2022-07-29T08:38:31;2.65;;;2.65;;
71176;SDS011;58877;51.992;4.504;2022-07-29T08:40:57;3.61;;;3.61;;
71176;SDS011;58877;51.992;4.504;2022-07-29T08:43:25;2.99;;;2.99;;
71176;SDS011;58877;51.992;4.504;2022-07-29T08:45:50;3.11;;;3.11;;
71176;SDS011;58877;51.992;4.504;2022-07-29T08:48:20;3.70;;;3.70;;
71176;SDS011;58877;51.992;4.504;2022-07-29T08:50:50;3.98;;;3.98;;
71176;SDS011;58877;51.992;4.504;2022-07-29T08:53:20;4.94;;;4.94;;
71176;SDS011;58877;51.992;4.504;2022-07-29T08:55:49;4.59;;;4.59;;
71176;SDS011;58877;51.992;4.504;2022-07-29T08:58:15;4.63;;;4.63;;
71176;SDS011;58877;51.992;4.504;2022-07-29T09:00:43;5.07;;;5.07;;
71176;SDS011;58877;51.992;4.504;2022-07-29T09:03:14;5.66;;;5.66;;
71176;SDS011;58877;51.992;4.504;2022-07-29T09:05:44;6.25;;;6.25;;
71176;SDS011;58877;51.992;4.504;2022-07-29T09:08:12;5.89;;;5.89;;
71176;SDS011;58877;51.992;4.504;2022-07-29T09:10:42;5.20;;;5.20;;
71176;SDS011;58877;51.992;4.504;2022-07-29T09:13:08;5.84;;;5.84;;
71176;SDS011;58877;51.992;4.504;2022-07-29T09:15:34;6.35;;;6.35;;
71176;SDS011;58877;51.992;4.504;2022-07-29T09:17:59;7.11;;;7.11;;
71176;SDS011;58877;51.992;4.504;2022-07-29T09:20:26;6.94;;;6.94;;
71176;SDS011;58877;51.992;4.504;2022-07-29T09:23:12;7.07;;;7.07;;
71176;SDS011;58877;51.992;4.504;2022-07-29T09:25:39;8.32;;;8.32;;
71176;SDS011;58877;51.992;4.504;2022-07-29T09:28:13;7.42;;;7.42;;
71176;SDS011;58877;51.992;4.504;2022-07-29T09:33:17;6.79;;;6.79;;
71176;SDS011;58877;51.992;4.504;2022-07-29T09:35:44;4.73;;;4.73;;
71176;SDS011;58877;51.992;4.504;2022-07-29T09:38:10;6.75;;;6.75;;
71176;SDS011;58877;51.992;4.504;2022-07-29T09:40:37;7.89;;;7.89;;
71176;SDS011;58877;51.992;4.504;2022-07-29T09:43:10;9.02;;;9.02;;
71176;SDS011;58877;51.992;4.504;2022-07-29T09:45:37;8.47;;;8.47;;
71176;SDS011;58877;51.992;4.504;2022-07-29T09:48:14;7.72;;;7.72;;
71176;SDS011;58877;51.992;4.504;2022-07-29T09:50:48;7.73;;;7.73;;
71176;SDS011;58877;51.992;4.504;2022-07-29T09:55:57;11.47;;;11.47;;
71176;SDS011;58877;51.992;4.504;2022-07-29T09:58:23;10.80;;;10.80;;
71176;SDS011;58877;51.992;4.504;2022-07-29T10:00:49;8.99;;;8.99;;
71176;SDS011;58877;51.992;4.504;2022-07-29T10:03:16;11.97;;;11.97;;
71176;SDS011;58877;51.992;4.504;2022-07-29T10:05:43;16.97;;;16.97;;
71176;SDS011;58877;51.992;4.504;2022-07-29T10:08:10;18.97;;;18.97;;
71176;SDS011;58877;51.992;4.504;2022-07-29T10:10:39;17.47;;;17.47;;
71176;SDS011;58877;51.992;4.504;2022-07-29T10:13:07;15.80;;;15.80;;
71176;SDS011;58877;51.992;4.504;2022-07-29T10:15:36;19.21;;;19.21;;
71176;SDS011;58877;51.992;4.504;2022-07-29T10:18:06;11.04;;;11.04;;
71176;SDS011;58877;51.992;4.504;2022-07-29T10:20:33;15.18;;;15.18;;
71176;SDS011;58877;51.992;4.504;2022-07-29T10:22:59;15.08;;;15.08;;
71176;SDS011;58877;51.992;4.504;2022-07-29T10:25:25;15.00;;;15.00;;
71176;SDS011;58877;51.992;4.504;2022-07-29T10:27:52;13.88;;;13.88;;
71176;SDS011;58877;51.992;4.504;2022-07-29T10:30:20;12.65;;;12.65;;
71176;SDS011;58877;51.992;4.504;2022-07-29T10:35:38;6.74;;;6.74;;
71176;SDS011;58877;51.992;4.504;2022-07-29T10:44:03;9.90;;;9.90;;
71176;SDS011;58877;51.992;4.504;2022-07-29T10:46:38;9.40;;;9.40;;
71176;SDS011;58877;51.992;4.504;2022-07-29T10:59:42;19.21;;;19.21;;
71176;SDS011;58877;51.992;4.504;2022-07-29T11:07:21;11.25;;;11.25;;
71176;SDS011;58877;51.992;4.504;2022-07-29T11:15:06;10.42;;;10.42;;
71176;SDS011;58877;51.992;4.504;2022-07-29T11:23:18;9.20;;;9.20;;
71176;SDS011;58877;51.992;4.504;2022-07-29T11:26:14;11.60;;;11.60;;
71176;SDS011;58877;51.992;4.504;2022-07-29T11:39:36;3.78;;;3.78;;
71176;SDS011;58877;51.992;4.504;2022-07-29T11:44:53;7.67;;;7.67;;
71176;SDS011;58877;51.992;4.504;2022-07-29T11:47:24;6.13;;;6.13;;
71176;SDS011;58877;51.992;4.504;2022-07-29T11:49:51;5.45;;;5.45;;
71176;SDS011;58877;51.992;4.504;2022-07-29T11:52:18;5.58;;;5.58;;
71176;SDS011;58877;51.992;4.504;2022-07-29T11:54:44;4.21;;;4.21;;
71176;SDS011;58877;51.992;4.504;2022-07-29T11:57:17;3.42;;;3.42;;
71176;SDS011;58877;51.992;4.504;2022-07-29T11:59:44;3.87;;;3.87;;
71176;SDS011;58877;51.992;4.504;2022-07-29T12:02:11;4.85;;;4.85;;
71176;SDS011;58877;51.992;4.504;2022-07-29T12:04:49;6.07;;;6.07;;
71176;SDS011;58877;51.992;4.504;2022-07-29T12:07:16;3.70;;;3.70;;
71176;SDS011;58877;51.992;4.504;2022-07-29T12:09:51;4.17;;;4.17;;
71176;SDS011;58877;51.992;4.504;2022-07-29T12:12:18;4.82;;;4.82;;
71176;SDS011;58877;51.992;4.504;2022-07-29T12:14:47;4.21;;;4.21;;
71176;SDS011;58877;51.992;4.504;2022-07-29T12:17:30;4.67;;;4.67;;
71176;SDS011;58877;51.992;4.504;2022-07-29T12:19:58;4.71;;;4.71;;
71176;SDS011;58877;51.992;4.504;2022-07-29T12:22:26;12.59;;;12.59;;
71176;SDS011;58877;51.992;4.504;2022-07-29T12:25:03;3.99;;;3.99;;
71176;SDS011;58877;51.992;4.504;2022-07-29T12:27:30;4.89;;;4.89;;
71176;SDS011;58877;51.992;4.504;2022-07-29T12:30:01;19.02;;;19.02;;
71176;SDS011;58877;51.992;4.504;2022-07-29T12:32:36;3.89;;;3.89;;
71176;SDS011;58877;51.992;4.504;2022-07-29T12:35:07;4.54;;;4.54;;
71176;SDS011;58877;51.992;4.504;2022-07-29T12:37:34;6.17;;;6.17;;
71176;SDS011;58877;51.992;4.504;2022-07-29T12:40:03;7.70;;;7.70;;
71176;SDS011;58877;51.992;4.504;2022-07-29T12:42:30;7.14;;;7.14;;
71176;SDS011;58877;51.992;4.504;2022-07-29T12:44:56;8.38;;;8.38;;
71176;SDS011;58877;51.992;4.504;2022-07-29T12:47:23;6.36;;;6.36;;
71176;SDS011;58877;51.992;4.504;2022-07-29T12:49:49;9.58;;;9.58;;
71176;SDS011;58877;51.992;4.504;2022-07-29T12:52:26;17.00;;;17.00;;
71176;SDS011;58877;51.992;4.504;2022-07-29T12:54:57;32.69;;;32.69;;
71176;SDS011;58877;51.992;4.504;2022-07-29T12:57:23;5.87;;;5.87;;
71176;SDS011;58877;51.992;4.504;2022-07-29T12:59:59;7.79;;;7.79;;
71176;SDS011;58877;51.992;4.504;2022-07-29T13:02:29;14.59;;;14.59;;
71176;SDS011;58877;51.992;4.504;2022-07-29T13:04:58;11.02;;;11.02;;
71176;SDS011;58877;51.992;4.504;2022-07-29T13:07:29;9.00;;;9.00;;
71176;SDS011;58877;51.992;4.504;2022-07-29T13:10:16;36.32;;;36.32;;
71176;SDS011;58877;51.992;4.504;2022-07-29T13:13:06;22.14;;;22.14;;
71176;SDS011;58877;51.992;4.504;2022-07-29T13:15:43;16.79;;;16.79;;
71176;SDS011;58877;51.992;4.504;2022-07-29T13:18:27;5.47;;;5.47;;
71176;SDS011;58877;51.992;4.504;2022-07-29T13:21:19;4.78;;;4.78;;
71176;SDS011;58877;51.992;4.504;2022-07-29T13:23:44;52.37;;;52.37;;
71176;SDS011;58877;51.992;4.504;2022-07-29T13:26:11;45.63;;;45.63;;
71176;SDS011;58877;51.992;4.504;2022-07-29T13:28:37;46.59;;;46.59;;
71176;SDS011;58877;51.992;4.504;2022-07-29T13:31:03;104.09;;;102.48;;
71176;SDS011;58877;51.992;4.504;2022-07-29T13:33:30;22.01;;;22.01;;
71176;SDS011;58877;51.992;4.504;2022-07-29T13:35:55;7.01;;;7.01;;
71176;SDS011;58877;51.992;4.504;2022-07-29T13:38:21;13.10;;;13.10;;
71176;SDS011;58877;51.992;4.504;2022-07-29T13:40:47;49.56;;;49.42;;
71176;SDS011;58877;51.992;4.504;2022-07-29T13:43:13;4.62;;;4.62;;
71176;SDS011;58877;51.992;4.504;2022-07-29T13:45:38;6.04;;;6.04;;
71176;SDS011;58877;51.992;4.504;2022-07-29T13:48:04;8.24;;;8.24;;
71176;SDS011;58877;51.992;4.504;2022-07-29T13:50:31;14.65;;;14.58;;
71176;SDS011;58877;51.992;4.504;2022-07-29T13:52:57;28.69;;;28.67;;
71176;SDS011;58877;51.992;4.504;2022-07-29T13:55:23;32.62;;;32.62;;
71176;SDS011;58877;51.992;4.504;2022-07-29T13:57:49;19.77;;;19.77;;
71176;SDS011;58877;51.992;4.504;2022-07-29T14:00:15;21.04;;;21.04;;
71176;SDS011;58877;51.992;4.504;2022-07-29T14:02:41;5.84;;;5.84;;
71176;SDS011;58877;51.992;4.504;2022-07-29T14:05:07;9.56;;;9.56;;
71176;SDS011;58877;51.992;4.504;2022-07-29T14:07:34;193.79;;;192.70;;
71176;SDS011;58877;51.992;4.504;2022-07-29T14:10:01;5.13;;;5.13;;
71176;SDS011;58877;51.992;4.504;2022-07-29T14:12:29;86.74;;;86.74;;
71176;SDS011;58877;51.992;4.504;2022-07-29T14:14:54;40.82;;;40.82;;
71176;SDS011;58877;51.992;4.504;2022-07-29T14:17:20;39.51;;;39.51;;
71176;SDS011;58877;51.992;4.504;2022-07-29T14:19:46;29.03;;;29.03;;
71176;SDS011;58877;51.992;4.504;2022-07-29T14:22:11;62.66;;;61.97;;
71176;SDS011;58877;51.992;4.504;2022-07-29T14:24:37;38.29;;;37.35;;
71176;SDS011;58877;51.992;4.504;2022-07-29T14:27:03;31.09;;;31.09;;
71176;SDS011;58877;51.992;4.504;2022-07-29T14:29:29;41.03;;;41.03;;
71176;SDS011;58877;51.992;4.504;2022-07-29T14:31:54;164.62;;;162.37;;
71176;SDS011;58877;51.992;4.504;2022-07-29T14:34:20;5.29;;;5.29;;
71176;SDS011;58877;51.992;4.504;2022-07-29T14:36:45;116.58;;;114.51;;
71176;SDS011;58877;51.992;4.504;2022-07-29T14:39:11;7.16;;;7.16;;
71176;SDS011;58877;51.992;4.504;2022-07-29T14:41:37;50.75;;;50.74;;
71176;SDS011;58877;51.992;4.504;2022-07-29T14:44:03;182.09;;;180.72;;
71176;SDS011;58877;51.992;4.504;2022-07-29T14:46:29;12.39;;;12.39;;
71176;SDS011;58877;51.992;4.504;2022-07-29T14:48:54;4.31;;;4.31;;
71176;SDS011;58877;51.992;4.504;2022-07-29T14:51:20;106.25;;;104.71;;
71176;SDS011;58877;51.992;4.504;2022-07-29T14:53:46;32.54;;;32.54;;
71176;SDS011;58877;51.992;4.504;2022-07-29T14:56:11;8.87;;;8.87;;
71176;SDS011;58877;51.992;4.504;2022-07-29T14:58:37;84.22;;;84.22;;
71176;SDS011;58877;51.992;4.504;2022-07-29T15:01:02;31.89;;;31.56;;
71176;SDS011;58877;51.992;4.504;2022-07-29T15:03:28;6.58;;;6.58;;
71176;SDS011;58877;51.992;4.504;2022-07-29T15:05:54;131.18;;;130.85;;
71176;SDS011;58877;51.992;4.504;2022-07-29T15:08:20;110.80;;;110.14;;
71176;SDS011;58877;51.992;4.504;2022-07-29T15:10:45;5.22;;;5.22;;
71176;SDS011;58877;51.992;4.504;2022-07-29T15:13:11;95.77;;;94.75;;
71176;SDS011;58877;51.992;4.504;2022-07-29T15:15:37;94.57;;;93.11;;
71176;SDS011;58877;51.992;4.504;2022-07-29T15:18:03;13.40;;;13.40;;
71176;SDS011;58877;51.992;4.504;2022-07-29T15:20:28;14.76;;;14.76;;
71176;SDS011;58877;51.992;4.504;2022-07-29T15:22:55;159.95;;;151.92;;